CNC3 weather

Brampton Airport
Brampton, Ontario, Canada

Public forecast

Using degrees Celsius for public forecast. Weather courtesy of forecast.io.

METAR (pilot weather report)

Closest report is Lester B. Pearson International Airport, 11.7 nm (21.7 km) ESE. Retrieved 2019/01/20 02:00 UTC (51 minutes ago):

CYYZ 200200Z 01014KT 2 1/4SM -SN OVC009 M16/M19 A2999 RMK SN4NS4 SLP172

TAF (pilot weather forecast)

Closest forecast is Lester B. Pearson International Airport, 11.7 nm (21.7 km) ESE. Retrieved 2019/01/20 03:40 UTC (0 seconds ago):

TAF CYYZ 200238Z 2003/2106 01015KT 21/2SM -SN BLSN OVC010 TEMPO 2003/2005 3/4SM -SN BLSN VV008 FM200500 01015G25KT 11/2SM -SN BLSN OVC015 TEMPO 2005/2010 3SM -SN BLSN FM201000 35020G30KT 4SM -SN BLSN OVC020 FM201400 34020G35KT 6SM BLSN BKN020 FM202000 34020G35KT P6SM SCT030 RMK NXT FCST BY 200600Z